createdAt,value
2019-05-05T00:00:45.182Z,4.27
2019-05-05T00:03:44.499Z,4.40
2019-05-05T00:06:14.670Z,4.92
2019-05-05T00:08:45.830Z,4.50
2019-05-05T00:11:35.162Z,4.07
2019-05-05T00:14:10.963Z,3.63
2019-05-05T00:17:02.191Z,4.40
2019-05-05T00:19:33.421Z,3.47
2019-05-05T00:22:04.536Z,3.73
2019-05-05T00:24:35.065Z,4.07
2019-05-05T00:27:04.449Z,4.13
2019-05-05T00:29:34.738Z,4.57
2019-05-05T00:32:05.501Z,5.17
2019-05-05T00:34:36.545Z,3.80
2019-05-05T00:37:06.151Z,3.97
2019-05-05T00:39:35.419Z,3.20
2019-05-05T00:42:06.034Z,3.80
2019-05-05T00:44:37.133Z,1.40
2019-05-05T00:47:37.661Z,3.00
2019-05-05T00:50:08.684Z,2.33
2019-05-05T00:52:39.317Z,3.47
2019-05-05T00:55:08.954Z,2.93
2019-05-05T00:57:40.050Z,2.90
2019-05-05T01:00:18.097Z,3.07
2019-05-05T01:02:49.755Z,3.30
2019-05-05T01:05:44.839Z,2.87
2019-05-05T01:08:17.897Z,3.90
2019-05-05T01:10:47.166Z,3.40
2019-05-05T01:13:16.537Z,4.77
2019-05-05T01:15:45.812Z,3.70
2019-05-05T01:18:15.322Z,4.50
2019-05-05T01:20:44.984Z,4.70
2019-05-05T01:23:15.837Z,4.27
2019-05-05T01:25:48.632Z,4.90
2019-05-05T01:28:16.484Z,4.47
2019-05-05T01:30:50.355Z,4.77
2019-05-05T01:33:37.819Z,5.50
2019-05-05T01:36:07.276Z,7.40
2019-05-05T01:38:58.338Z,6.10
2019-05-05T01:41:34.824Z,7.03
2019-05-05T01:44:04.992Z,6.33
2019-05-05T01:46:35.287Z,6.80
2019-05-05T01:49:05.552Z,5.67
2019-05-05T01:51:36.162Z,7.53
2019-05-05T01:54:06.732Z,7.47
2019-05-05T01:56:36.422Z,7.60
2019-05-05T01:59:07.282Z,6.43
2019-05-05T02:01:36.871Z,8.38
2019-05-05T02:04:06.220Z,6.70
2019-05-05T02:06:35.549Z,8.77
2019-05-05T02:09:05.602Z,7.63
2019-05-05T02:11:35.389Z,8.10
2019-05-05T02:14:05.238Z,7.30
2019-05-05T02:16:34.894Z,8.30
2019-05-05T02:19:05.160Z,9.20
2019-05-05T02:21:35.497Z,11.00
2019-05-05T02:24:05.517Z,8.40
2019-05-05T02:26:35.183Z,9.30
2019-05-05T02:29:31.617Z,9.00
2019-05-05T02:32:18.533Z,8.80
2019-05-05T02:34:56.607Z,8.80
2019-05-05T02:37:25.980Z,8.27
2019-05-05T02:39:58.870Z,9.70
2019-05-05T02:42:27.851Z,8.43
2019-05-05T02:44:59.504Z,8.30
2019-05-05T02:47:50.897Z,7.13
2019-05-05T02:50:24.944Z,9.70
2019-05-05T02:52:53.602Z,8.20
2019-05-05T02:55:24.087Z,7.70
2019-05-05T02:57:55.045Z,7.00
2019-05-05T03:00:43.738Z,7.00
2019-05-05T03:03:13.750Z,6.63
2019-05-05T03:05:43.543Z,6.30
2019-05-05T03:08:13.911Z,7.63
2019-05-05T03:10:44.328Z,8.60
2019-05-05T03:13:14.171Z,7.07
2019-05-05T03:15:52.276Z,7.67
2019-05-05T03:18:22.200Z,7.30
2019-05-05T03:21:02.347Z,7.03
2019-05-05T03:23:24.037Z,8.07
2019-05-05T03:25:54.541Z,8.57
2019-05-05T03:28:26.737Z,7.07
2019-05-05T03:30:56.184Z,7.13
2019-05-05T03:33:25.651Z,7.60
2019-05-05T03:35:55.159Z,7.23
2019-05-05T03:38:24.839Z,8.20
2019-05-05T03:40:56.547Z,6.53
2019-05-05T03:43:30.068Z,7.93
2019-05-05T03:46:01.759Z,7.00
2019-05-05T03:48:31.513Z,6.67
2019-05-05T03:51:00.966Z,8.17
2019-05-05T03:53:30.970Z,7.10
2019-05-05T03:56:00.743Z,6.60
2019-05-05T03:58:30.309Z,6.47
2019-05-05T04:01:59.554Z,6.87
2019-05-05T04:04:33.601Z,8.43
2019-05-05T04:07:04.782Z,6.50
2019-05-05T04:09:34.653Z,6.97
2019-05-05T04:12:04.567Z,6.80
2019-05-05T04:14:34.933Z,8.07
2019-05-05T04:17:17.865Z,6.43
2019-05-05T04:19:49.869Z,7.63
2019-05-05T04:22:19.787Z,8.63
2019-05-05T04:24:49.692Z,7.30
2019-05-05T04:27:18.939Z,7.60
2019-05-05T04:29:48.904Z,8.20
2019-05-05T04:32:18.177Z,8.10
2019-05-05T04:34:47.407Z,7.57
2019-05-05T04:37:16.770Z,8.97
2019-05-05T04:39:46.316Z,8.93
2019-05-05T04:42:15.902Z,7.90
2019-05-05T04:44:45.548Z,10.70
2019-05-05T04:47:20.958Z,8.30
2019-05-05T04:50:18.040Z,6.83
2019-05-05T04:52:46.932Z,8.57
2019-05-05T04:55:16.177Z,8.13
2019-05-05T04:57:45.779Z,10.50
2019-05-05T05:00:15.024Z,10.70
2019-05-05T05:02:59.217Z,8.27
2019-05-05T05:05:47.778Z,9.60
2019-05-05T05:08:17.139Z,10.77
2019-05-05T05:10:46.371Z,8.67
2019-05-05T05:13:15.681Z,8.57
2019-05-05T05:15:45.254Z,10.00
2019-05-05T05:18:16.874Z,8.60
2019-05-05T05:20:48.044Z,9.07
2019-05-05T05:23:18.692Z,10.40
2019-05-05T05:25:50.356Z,9.43
2019-05-05T05:28:20.037Z,9.50
2019-05-05T05:30:49.797Z,10.03
2019-05-05T05:33:19.031Z,8.10
2019-05-05T05:35:48.684Z,8.87
2019-05-05T05:38:18.287Z,8.50
2019-05-05T05:40:57.528Z,8.07
2019-05-05T05:43:40.237Z,7.93
2019-05-05T05:46:25.793Z,7.07
2019-05-05T05:49:24.140Z,7.17
2019-05-05T05:51:53.888Z,5.93
2019-05-05T05:54:23.550Z,6.23
2019-05-05T05:56:53.804Z,7.00
2019-05-05T05:59:24.698Z,6.07
2019-05-05T06:02:08.352Z,5.80
2019-05-05T06:04:27.005Z,6.37
2019-05-05T06:06:56.264Z,6.00
2019-05-05T06:09:25.829Z,7.20
2019-05-05T06:11:55.494Z,6.40
2019-05-05T06:14:24.786Z,6.10
2019-05-05T06:16:54.123Z,6.10
2019-05-05T06:19:24.642Z,6.17
2019-05-05T06:21:55.809Z,6.37
2019-05-05T06:24:27.228Z,6.37
2019-05-05T06:26:56.483Z,6.43
2019-05-05T06:29:25.743Z,6.37
2019-05-05T06:31:55.390Z,6.40
2019-05-05T06:34:25.038Z,5.80
2019-05-05T06:36:54.532Z,5.80
2019-05-05T06:39:24.204Z,5.33
2019-05-05T06:42:00.427Z,5.40
2019-05-05T06:44:35.711Z,5.67
2019-05-05T06:47:25.451Z,5.73
2019-05-05T06:49:56.602Z,5.80
2019-05-05T06:52:26.857Z,5.60
2019-05-05T06:54:56.149Z,6.07
2019-05-05T06:57:27.538Z,5.80
2019-05-05T06:59:57.185Z,7.07
2019-05-05T07:02:27.138Z,5.87
2019-05-05T07:04:57.365Z,6.10
2019-05-05T07:07:26.956Z,4.40
2019-05-05T07:09:56.540Z,4.17
2019-05-05T07:12:25.792Z,6.40
2019-05-05T07:14:55.395Z,4.70
2019-05-05T07:17:24.663Z,6.15
2019-05-05T07:19:54.462Z,6.13
2019-05-05T07:22:24.443Z,5.97
2019-05-05T07:24:54.605Z,6.87
2019-05-05T07:27:24.444Z,6.60
2019-05-05T07:29:54.247Z,6.47
2019-05-05T07:32:24.707Z,5.87
2019-05-05T07:35:06.285Z,5.30
2019-05-05T07:37:35.529Z,4.67
2019-05-05T07:40:05.965Z,6.00
2019-05-05T07:42:35.598Z,6.40
2019-05-05T07:45:18.977Z,7.30
2019-05-05T07:47:36.664Z,5.60
2019-05-05T07:50:06.527Z,5.40
2019-05-05T07:52:36.095Z,6.27
2019-05-05T07:55:07.212Z,6.17
2019-05-05T07:57:37.004Z,5.70
2019-05-05T08:00:07.097Z,6.90
2019-05-05T08:02:39.424Z,5.80
2019-05-05T08:05:09.125Z,4.20
2019-05-05T08:07:38.746Z,6.13
2019-05-05T08:10:09.911Z,4.05
2019-05-05T08:12:39.489Z,7.60
2019-05-05T08:15:09.463Z,5.63
2019-05-05T08:18:05.028Z,6.47
2019-05-05T08:20:40.674Z,5.50
2019-05-05T08:23:29.161Z,5.80
2019-05-05T08:25:58.508Z,6.50
2019-05-05T08:28:39.357Z,5.60
2019-05-05T08:31:27.544Z,5.77
2019-05-05T08:33:58.668Z,5.57
2019-05-05T08:36:28.304Z,4.40
2019-05-05T08:38:57.532Z,5.70
2019-05-05T08:41:26.805Z,6.10
2019-05-05T08:43:56.415Z,4.80
2019-05-05T08:46:25.894Z,5.80
2019-05-05T08:48:55.320Z,6.67
2019-05-05T08:51:24.781Z,4.77
2019-05-05T08:53:54.724Z,5.93
2019-05-05T08:56:25.644Z,4.70
2019-05-05T08:58:56.399Z,5.57
2019-05-05T09:01:25.677Z,7.95
2019-05-05T09:03:55.344Z,5.80
2019-05-05T09:06:24.614Z,5.00
2019-05-05T09:08:54.876Z,4.00
2019-05-05T09:11:24.237Z,4.70
2019-05-05T09:13:55.275Z,4.57
2019-05-05T09:16:25.190Z,6.00
2019-05-05T09:19:00.910Z,3.73
2019-05-05T09:21:30.157Z,5.70
2019-05-05T09:24:03.218Z,4.60
2019-05-05T09:26:57.830Z,4.93
2019-05-05T09:29:30.082Z,6.90
2019-05-05T09:31:59.417Z,7.33
2019-05-05T09:34:29.165Z,6.10
2019-05-05T09:37:00.466Z,4.57
2019-05-05T09:39:29.754Z,4.63
2019-05-05T09:41:59.030Z,6.23
2019-05-05T09:44:29.728Z,5.87
2019-05-05T09:46:59.987Z,5.10
2019-05-05T09:49:29.457Z,3.97
2019-05-05T09:52:00.581Z,5.73
2019-05-05T09:54:31.424Z,5.20
2019-05-05T09:57:00.750Z,5.50
2019-05-05T09:59:30.354Z,5.27
2019-05-05T10:01:59.612Z,4.90
2019-05-05T10:04:31.821Z,4.80
2019-05-05T10:07:01.100Z,3.90
2019-05-05T10:09:34.301Z,4.07
2019-05-05T10:12:04.754Z,5.33
2019-05-05T10:14:34.661Z,4.67
2019-05-05T10:17:04.929Z,5.50
2019-05-05T10:19:35.681Z,3.80
2019-05-05T10:22:04.919Z,3.23
2019-05-05T10:24:44.850Z,2.93
2019-05-05T10:27:14.521Z,4.20
2019-05-05T10:29:44.250Z,4.33
2019-05-05T10:32:14.581Z,3.47
2019-05-05T10:34:45.769Z,3.03
2019-05-05T10:37:15.373Z,4.00
2019-05-05T10:39:49.890Z,4.23
2019-05-05T10:42:22.072Z,3.40
2019-05-05T10:44:51.316Z,3.30
2019-05-05T10:47:20.593Z,2.80
2019-05-05T10:49:50.258Z,3.80
2019-05-05T10:52:19.983Z,3.40
2019-05-05T10:54:49.225Z,4.27
2019-05-05T10:57:19.185Z,2.30
2019-05-05T10:59:49.926Z,3.10
2019-05-05T11:02:20.286Z,2.93
2019-05-05T11:04:50.543Z,4.00
2019-05-05T11:07:20.107Z,2.70
2019-05-05T11:09:51.393Z,2.43
2019-05-05T11:12:20.671Z,2.47
2019-05-05T11:14:51.284Z,3.67
2019-05-05T11:17:20.604Z,2.47
2019-05-05T11:19:50.312Z,4.13
2019-05-05T11:22:20.062Z,2.67
2019-05-05T11:24:58.180Z,3.27
2019-05-05T11:27:24.139Z,3.75
2019-05-05T11:30:18.086Z,3.50
2019-05-05T11:33:06.305Z,2.93
2019-05-05T11:36:04.499Z,3.53
2019-05-05T11:38:34.563Z,3.87
2019-05-05T11:41:05.043Z,3.40
2019-05-05T11:43:34.797Z,3.67
2019-05-05T11:46:04.130Z,3.00
2019-05-05T11:48:34.496Z,2.87
2019-05-05T11:51:04.532Z,3.30
2019-05-05T11:53:34.247Z,3.20
2019-05-05T11:56:04.315Z,4.20
2019-05-05T11:58:35.319Z,3.27
2019-05-05T12:01:04.570Z,3.00
2019-05-05T12:03:37.452Z,2.40
2019-05-05T12:06:05.588Z,3.10
2019-05-05T12:08:35.224Z,3.37
2019-05-05T12:11:06.221Z,3.60
2019-05-05T12:13:35.548Z,3.10
2019-05-05T12:16:09.420Z,3.27
2019-05-05T12:18:39.155Z,3.80
2019-05-05T12:21:09.543Z,4.83
2019-05-05T12:23:38.890Z,4.70
2019-05-05T12:26:30.814Z,4.33
2019-05-05T12:29:17.023Z,4.87
2019-05-05T12:31:48.932Z,3.60
2019-05-05T12:34:19.287Z,3.40
2019-05-05T12:36:49.042Z,2.63
2019-05-05T12:39:18.638Z,4.60
2019-05-05T12:41:49.291Z,4.63
2019-05-05T12:44:27.061Z,3.13
2019-05-05T12:47:17.027Z,3.20
2019-05-05T12:49:48.570Z,3.67
2019-05-05T12:52:17.797Z,3.40
2019-05-05T12:54:47.043Z,3.90
2019-05-05T12:57:17.312Z,3.30
2019-05-05T12:59:47.993Z,3.13
2019-05-05T13:02:17.671Z,3.33
2019-05-05T13:04:47.276Z,4.00
2019-05-05T13:07:16.683Z,3.00
2019-05-05T13:09:45.928Z,3.97
2019-05-05T13:12:16.426Z,4.10
2019-05-05T13:14:45.672Z,4.67
2019-05-05T13:17:14.965Z,3.33
2019-05-05T13:20:09.008Z,3.03
2019-05-05T13:22:53.998Z,3.70
2019-05-05T13:25:55.205Z,5.60
2019-05-05T13:28:16.458Z,4.90
2019-05-05T13:30:48.792Z,2.80
2019-05-05T13:33:18.044Z,5.80
2019-05-05T13:35:47.432Z,3.47
2019-05-05T13:38:17.016Z,5.07
2019-05-05T13:40:46.242Z,6.63
2019-05-05T13:43:15.530Z,4.03
2019-05-05T13:45:59.694Z,3.60
2019-05-05T13:48:29.377Z,3.93
2019-05-05T13:51:04.137Z,3.83
2019-05-05T13:53:34.246Z,4.97
2019-05-05T13:56:11.496Z,4.45
2019-05-05T13:58:35.364Z,5.00
2019-05-05T14:01:04.634Z,3.70
2019-05-05T14:03:35.983Z,5.33
2019-05-05T14:06:06.189Z,4.17
2019-05-05T14:08:36.434Z,3.70
2019-05-05T14:11:06.405Z,4.83
2019-05-05T14:13:35.877Z,3.80
2019-05-05T14:16:05.136Z,4.90
2019-05-05T14:18:34.375Z,3.33
2019-05-05T14:21:04.005Z,4.50
2019-05-05T14:23:43.839Z,3.10
2019-05-05T14:26:25.062Z,4.60
2019-05-05T14:28:46.541Z,4.40
2019-05-05T14:31:18.121Z,4.90
2019-05-05T14:33:54.104Z,3.40
2019-05-05T14:36:33.516Z,3.40
2019-05-05T14:39:04.243Z,3.60
2019-05-05T14:41:35.228Z,3.87
2019-05-05T14:44:05.007Z,3.77
2019-05-05T14:46:34.490Z,4.17
2019-05-05T14:49:06.599Z,3.67
2019-05-05T14:51:37.644Z,4.17
2019-05-05T14:54:06.983Z,3.77
2019-05-05T14:56:36.959Z,2.33
2019-05-05T14:59:06.544Z,3.70
2019-05-05T15:01:36.285Z,2.50
2019-05-05T15:04:09.325Z,3.30
2019-05-05T15:07:03.770Z,3.20
2019-05-05T15:09:54.633Z,3.13
2019-05-05T15:12:37.570Z,2.60
2019-05-05T15:15:07.614Z,3.37
2019-05-05T15:17:36.989Z,2.70
2019-05-05T15:20:07.908Z,3.10
2019-05-05T15:22:37.190Z,2.97
2019-05-05T15:25:06.796Z,3.10
2019-05-05T15:27:37.771Z,2.10
2019-05-05T15:30:09.065Z,1.97
2019-05-05T15:32:38.308Z,2.63
2019-05-05T15:35:07.907Z,2.93
2019-05-05T15:37:38.747Z,2.17
2019-05-05T15:40:09.708Z,2.77
2019-05-05T15:42:39.215Z,2.80
2019-05-05T15:45:09.006Z,3.17
2019-05-05T15:47:38.323Z,3.00
2019-05-05T15:50:08.054Z,3.30
2019-05-05T15:52:38.070Z,3.17
2019-05-05T15:55:07.518Z,3.03
2019-05-05T15:57:36.772Z,3.40
2019-05-05T16:00:07.671Z,3.90
2019-05-05T16:02:38.559Z,3.20
2019-05-05T16:05:09.478Z,2.20
2019-05-05T16:07:38.743Z,2.47
2019-05-05T16:10:09.377Z,3.60
2019-05-05T16:12:39.718Z,2.63
2019-05-05T16:15:24.231Z,3.60
2019-05-05T16:18:17.826Z,1.87
2019-05-05T16:20:54.522Z,4.67
2019-05-05T16:23:35.604Z,3.20
2019-05-05T16:26:03.750Z,2.83
2019-05-05T16:28:34.349Z,3.33
2019-05-05T16:31:05.464Z,1.87
2019-05-05T16:33:34.899Z,2.20
2019-05-05T16:36:06.238Z,2.50
2019-05-05T16:38:35.307Z,2.20
2019-05-05T16:41:06.514Z,3.02
2019-05-05T16:43:35.759Z,3.20
2019-05-05T16:46:05.070Z,2.40
2019-05-05T16:48:34.685Z,2.30
2019-05-05T16:51:06.318Z,2.60
2019-05-05T16:53:36.463Z,2.30
2019-05-05T16:56:08.003Z,3.00
2019-05-05T16:58:38.376Z,4.13
2019-05-05T17:01:11.751Z,3.60
2019-05-05T17:03:45.364Z,2.50
2019-05-05T17:06:14.012Z,2.90
2019-05-05T17:08:44.403Z,2.50
2019-05-05T17:11:15.095Z,3.20
2019-05-05T17:14:09.907Z,3.07
2019-05-05T17:17:05.955Z,2.83
2019-05-05T17:19:45.664Z,3.10
2019-05-05T17:22:19.357Z,3.10
2019-05-05T17:24:49.250Z,2.67
2019-05-05T17:27:18.998Z,3.83
2019-05-05T17:29:48.382Z,2.70
2019-05-05T17:32:18.019Z,3.90
2019-05-05T17:34:47.297Z,2.57
2019-05-05T17:37:16.981Z,3.40
2019-05-05T17:39:54.891Z,2.20
2019-05-05T17:42:46.894Z,3.07
2019-05-05T17:45:30.202Z,2.80
2019-05-05T17:48:06.030Z,1.90
2019-05-05T17:50:53.622Z,3.40
2019-05-05T17:53:48.046Z,2.30
2019-05-05T17:56:19.270Z,2.80
2019-05-05T17:58:50.016Z,2.93
2019-05-05T18:01:20.686Z,2.90
2019-05-05T18:03:51.137Z,2.90
2019-05-05T18:06:40.532Z,3.77
2019-05-05T18:09:16.323Z,2.70
2019-05-05T18:12:06.083Z,3.30
2019-05-05T18:14:36.243Z,3.40
2019-05-05T18:17:05.621Z,3.40
2019-05-05T18:19:35.401Z,3.77
2019-05-05T18:22:04.670Z,5.80
2019-05-05T18:24:35.140Z,3.93
2019-05-05T18:27:06.647Z,3.50
2019-05-05T18:29:37.730Z,3.30
2019-05-05T18:32:07.422Z,3.67
2019-05-05T18:34:36.731Z,4.07
2019-05-05T18:37:06.608Z,3.57
2019-05-05T18:39:36.125Z,4.00
2019-05-05T18:42:13.988Z,3.60
2019-05-05T18:44:45.834Z,3.40
2019-05-05T18:47:19.672Z,4.13
2019-05-05T18:49:49.038Z,4.23
2019-05-05T18:52:18.300Z,4.50
2019-05-05T18:54:49.540Z,3.53
2019-05-05T18:57:19.026Z,3.87
2019-05-05T18:59:48.273Z,3.90
2019-05-05T19:02:37.886Z,4.13
2019-05-05T19:05:35.628Z,4.07
2019-05-05T19:08:10.696Z,4.83
2019-05-05T19:10:40.164Z,4.70
2019-05-05T19:13:09.766Z,5.07
2019-05-05T19:15:39.355Z,5.70
2019-05-05T19:18:08.879Z,4.77
2019-05-05T19:21:08.180Z,3.73
2019-05-05T19:23:37.639Z,4.03
2019-05-05T19:26:07.690Z,4.67
2019-05-05T19:28:44.336Z,4.90
2019-05-05T19:31:09.116Z,6.70
2019-05-05T19:33:38.743Z,4.87
2019-05-05T19:36:09.916Z,4.33
2019-05-05T19:38:39.235Z,5.00
2019-05-05T19:41:08.477Z,3.53
2019-05-05T19:43:54.702Z,4.33
2019-05-05T19:46:29.766Z,4.50
2019-05-05T19:49:14.949Z,4.87
2019-05-05T19:51:44.801Z,4.47
2019-05-05T19:54:15.157Z,4.27
2019-05-05T19:56:46.143Z,3.87
2019-05-05T19:59:15.488Z,4.97
2019-05-05T20:01:45.157Z,3.77
2019-05-05T20:04:14.834Z,5.03
2019-05-05T20:06:45.988Z,4.00
2019-05-05T20:09:15.716Z,4.60
2019-05-05T20:11:46.835Z,5.37
2019-05-05T20:14:16.061Z,5.03
2019-05-05T20:17:04.740Z,5.27
2019-05-05T20:19:38.285Z,4.90
2019-05-05T20:22:07.898Z,5.10
2019-05-05T20:24:37.642Z,5.33
2019-05-05T20:27:08.129Z,4.30
2019-05-05T20:29:37.749Z,5.73
2019-05-05T20:32:07.336Z,4.97
2019-05-05T20:34:45.898Z,4.80
2019-05-05T20:37:17.637Z,4.10
2019-05-05T20:39:46.903Z,5.07
2019-05-05T20:42:16.591Z,5.00
2019-05-05T20:44:46.569Z,4.70
2019-05-05T20:47:15.827Z,4.80
2019-05-05T20:49:45.103Z,5.30
2019-05-05T20:52:14.670Z,5.40
2019-05-05T20:54:44.184Z,5.00
2019-05-05T20:57:13.890Z,4.70
2019-05-05T20:59:44.538Z,5.27
2019-05-05T21:02:14.166Z,5.27
2019-05-05T21:04:44.587Z,5.03
2019-05-05T21:07:14.282Z,5.60
2019-05-05T21:09:43.982Z,5.60
2019-05-05T21:12:13.892Z,6.13
2019-05-05T21:14:47.166Z,4.80
2019-05-05T21:17:16.479Z,6.15
2019-05-05T21:19:45.716Z,4.63
2019-05-05T21:22:46.329Z,5.70
2019-05-05T21:25:24.576Z,5.87
2019-05-05T21:27:53.853Z,5.23
2019-05-05T21:30:23.837Z,6.20
2019-05-05T21:32:54.689Z,6.60
2019-05-05T21:35:24.212Z,6.73
2019-05-05T21:37:55.256Z,6.13
2019-05-05T21:40:25.483Z,5.93
2019-05-05T21:42:55.081Z,5.77
2019-05-05T21:45:25.683Z,6.27
2019-05-05T21:47:55.349Z,6.67
2019-05-05T21:50:33.904Z,6.83
2019-05-05T21:53:28.907Z,7.30
2019-05-05T21:56:17.074Z,5.40
2019-05-05T21:58:46.550Z,6.30
2019-05-05T22:01:18.302Z,6.20
2019-05-05T22:03:47.771Z,5.90
2019-05-05T22:06:17.468Z,5.50
2019-05-05T22:08:46.732Z,6.63
2019-05-05T22:11:16.324Z,6.60
2019-05-05T22:13:45.609Z,6.47
2019-05-05T22:16:14.865Z,5.90
2019-05-05T22:18:44.730Z,6.60
2019-05-05T22:21:30.189Z,6.00
2019-05-05T22:24:16.444Z,6.10
2019-05-05T22:26:45.914Z,6.05
2019-05-05T22:29:17.020Z,7.30
2019-05-05T22:31:47.249Z,8.00
2019-05-05T22:34:16.774Z,6.67
2019-05-05T22:36:46.074Z,6.40
2019-05-05T22:39:17.081Z,7.67
2019-05-05T22:41:46.708Z,5.40
2019-05-05T22:44:15.981Z,6.40
2019-05-05T22:46:45.245Z,7.13
2019-05-05T22:49:15.330Z,6.90
2019-05-05T22:51:46.071Z,6.87
2019-05-05T22:54:15.815Z,6.90
2019-05-05T22:56:45.383Z,6.33
2019-05-05T22:59:14.818Z,6.80
2019-05-05T23:01:44.080Z,7.60
2019-05-05T23:04:35.111Z,6.07
2019-05-05T23:07:08.454Z,7.03
2019-05-05T23:09:39.685Z,6.90
2019-05-05T23:12:09.239Z,7.57
2019-05-05T23:14:38.485Z,7.40
2019-05-05T23:17:30.173Z,7.30
2019-05-05T23:20:07.465Z,6.20
2019-05-05T23:22:49.827Z,7.23
2019-05-05T23:25:26.355Z,7.10
2019-05-05T23:27:55.982Z,7.27
2019-05-05T23:30:38.645Z,6.60
2019-05-05T23:32:57.019Z,7.10
2019-05-05T23:35:27.956Z,7.23
2019-05-05T23:37:57.480Z,6.73
2019-05-05T23:40:28.525Z,6.63
2019-05-05T23:42:57.788Z,7.23
2019-05-05T23:45:27.492Z,6.80
2019-05-05T23:47:57.446Z,6.27
2019-05-05T23:50:27.055Z,7.10
2019-05-05T23:52:57.027Z,6.40
2019-05-05T23:55:27.288Z,8.60
2019-05-05T23:57:56.566Z,7.30
